Terminal Aerodrome Forecast
Issued by NWS Melbourne, FL

Home | Current Version | Previous Version | Text Only | Print | Product List | Glossary On
Versions: 1 2 3 4 5 6 7 8 9 10 11 12 13 14 15 16 17 18 19 20 21 22 23 24 25 26
677
FTUS42 KMLB 180527
TAFMCO
TAF
KMCO 180527Z 1806/1906 36010KT P6SM VCSH SCT013 SCT025 BKN050
      TEMPO 1807/1810 4SM -SHRA BR SCT010 BKN020
     FM181200 02011G17KT P6SM SCT020 BKN050
     FM181900 04014G20KT P6SM SCT050 BKN150
     FM190000 02009KT P6SM FEW030 BKN050=

USA.gov is the U.S. government's official web portal to all federal, state and local government web resources and services.